Nearby METAR Reports

 

EGNM - Leeds And Bradford, United Kingdom
Distance from station: N 11mi, 18km
Updated: 27/01/2020 04:20
Partly cloudy
Partly cloudy
 Wind from S
Wind: S 7 mph , 11 km/h
Temperature: 5°C
Wind Chill: 2°C
Dew Point: 3°C
Humidity: 87%
Barometer: 997 hPa
Clouds: Partly cloudy
Visibility: 6 miles , 10 km
Cloud details: Few Clouds 457 m
Partly cloudy 1006 m
2020/01/27 04:20 EGNM 270420Z 18006KT 150V220 9999 FEW015 SCT033 05/03 Q0997
EGXU - Linton-On-Ouse, United Kingdom
Distance from station: NNE 28mi, 45km
Updated: 27/01/2020 03:50
Partly cloudy
Partly cloudy
 Wind from S
Wind: S 12 mph , 19 km/h
Temperature: 4°C
Wind Chill: 0°C
Dew Point: 3°C
Humidity: 93%
Barometer: 998 hPa
Clouds: Partly cloudy
Visibility: 6 miles , 10 km
Cloud details: Partly cloudy 6706 m
2020/01/27 03:50 EGXU 270350Z AUTO 19010KT 9999 SCT220/// 04/03 Q0998
 
EGCN - Doncaster Sheffield, United Kingdom
Distance from station: ESE 30mi, 45km
Updated: 27/01/2020 04:20
Partly cloudy
Partly cloudy
 Wind from SSW
Wind: SSW 9 mph , 15 km/h
Temperature: 5°C
Wind Chill: 2°C
Dew Point: 4°C
Humidity: 93%
Barometer: 1000 hPa
Clouds: Partly cloudy
Visibility: 6 miles , 10 km
Cloud details: Partly cloudy 427 m
2020/01/27 04:20 EGCN 270420Z 21008KT 9999 SCT014 05/04 Q1000
EGXZ - Topcliffe RAF, United Kingdom
Distance from station: NNE 36mi, 57km
Updated: 27/01/2020 03:50
Mist, Few clouds
Mist, Few clouds
 Wind from SE
Wind: SE 12 mph , 19 km/h
Temperature: 3°C
Wind Chill: -2°C
Dew Point: 2°C
Humidity: 93%
Barometer: 997 hPa
Summary: Mist
Clouds: Few Clouds
Visibility: 4 miles , 7 km
Cloud details: Few Clouds 701 m
2020/01/27 03:50 EGXZ 270350Z AUTO 14010KT 7000 BR FEW023/// 03/02 Q0997 RERA
 
EGCC - Manchester Intl, United Kingdom
Distance from station: SW 36mi, 58km
Updated: 27/01/2020 04:20
Partly cloudy
Partly cloudy
 Wind from S
Wind: S 7 mph , 11 km/h
Temperature: 5°C
Wind Chill: 2°C
Dew Point: 4°C
Humidity: 93%
Barometer: 998 hPa
Clouds: Partly cloudy
Visibility: 6 miles , 10 km
Cloud details: Partly cloudy 945 m
2020/01/27 04:20 EGCC 270420Z AUTO 19006KT 150V230 9999 SCT031 05/04 Q0998 NOSIG
EGXE - Leeming RAF, United Kingdom
Distance from station: N 40mi, 65km
Updated: 27/01/2020 03:50
Mostly cloudy
Mostly cloudy
 Wind from SSE
Wind: SSE 10 mph , 17 km/h
Temperature: 4°C
Wind Chill: 0°C
Dew Point: 3°C
Humidity: 93%
Barometer: 997 hPa
Clouds: Mostly cloudy
Visibility: 6 miles , 10 km
Cloud details: Mostly cloudy 640 m
Mostly cloudy 884 m
2020/01/27 03:50 EGXE 270350Z AUTO 16009KT 9999 BKN021/// BKN029/// 04/03 Q0997 RERA